Time;durP1;ratioP1;P1;durP2;ratioP2;P2;SDS_P1;SDS_P2;PMS_P1;PMS_P2;Temp;Humidity;BMP_temperature;BMP_pressure;BME280_temperature;BME280_humidity;BME280_pressure;Samples;Min_cycle;Max_cycle;Signal;HPM_P1;HPM_P2
2022/10/28 00:02:15;;;;;;;15.40;11.45;;;;;;;;;;4963932;28;20027;-74
2022/10/28 00:04:41;;;;;;;19.13;12.98;;;;;;;;;;4965475;28;20022;-67
2022/10/28 00:07:06;;;;;;;16.30;11.65;;;;;;;;;;4965080;28;20157;-68
2022/10/28 00:09:32;;;;;;;23.38;12.32;;;;;;;;;;4963980;28;21044;-77
2022/10/28 00:11:57;;;;;;;17.48;12.40;;;;;;;;;;4963832;28;20082;-67
2022/10/28 00:14:23;;;;;;;19.70;12.80;;;;;;;;;;4965193;28;20018;-68
2022/10/28 00:16:48;;;;;;;18.10;12.52;;;;;;;;;;4965257;28;20465;-68
2022/10/28 00:19:14;;;;;;;19.50;12.27;;;;;;;;;;4969807;28;20030;-74
2022/10/28 00:21:41;;;;;;;20.23;11.95;;;;;;;;;;4985449;28;20037;-68
2022/10/28 00:24:09;;;;;;;17.42;11.20;;;;;;;;;;4994051;28;20033;-67
2022/10/28 00:26:36;;;;;;;18.70;12.63;;;;;;;;;;4993877;28;21552;-78
2022/10/28 00:29:07;;;;;;;19.75;13.35;;;;;;;;;;4993621;28;20065;-76
2022/10/28 00:31:34;;;;;;;17.85;12.25;;;;;;;;;;4994077;28;20039;-70
2022/10/28 00:34:02;;;;;;;17.73;11.93;;;;;;;;;;4994087;28;20045;-68
2022/10/28 00:36:33;;;;;;;17.77;11.93;;;;;;;;;;4993972;28;20029;-68
2022/10/28 00:39:00;;;;;;;12.50;9.00;;;;;;;;;;4993959;28;20392;-68
2022/10/28 00:41:31;;;;;;;16.88;12.20;;;;;;;;;;4980568;28;20507;-68
2022/10/28 00:44:19;;;;;;;16.30;10.88;;;;;;;;;;4967563;28;20069;-67
2022/10/28 00:46:47;;;;;;;18.77;12.73;;;;;;;;;;4977877;28;20458;-69
2022/10/28 00:49:21;;;;;;;17.70;12.40;;;;;;;;;;4984126;28;20115;-68
2022/10/28 00:51:51;;;;;;;16.70;11.80;;;;;;;;;;4974369;28;20023;-68
2022/10/28 00:54:18;;;;;;;16.92;12.07;;;;;;;;;;4974375;28;20118;-68
2022/10/28 00:56:49;;;;;;;18.08;11.70;;;;;;;;;;4973904;28;20050;-70
2022/10/28 00:59:18;;;;;;;19.13;11.93;;;;;;;;;;4974280;28;20030;-68
2022/10/28 01:01:45;;;;;;;19.83;12.05;;;;;;;;;;4977421;28;20098;-67
2022/10/28 01:04:11;;;;;;;21.13;12.50;;;;;;;;;;4993749;28;20061;-71
2022/10/28 01:06:37;;;;;;;16.77;11.52;;;;;;;;;;4974536;28;20376;-67
2022/10/28 01:09:02;;;;;;;16.13;11.85;;;;;;;;;;4966269;28;20479;-67
2022/10/28 01:11:50;;;;;;;19.30;11.35;;;;;;;;;;4963146;28;20131;-76
2022/10/28 01:14:21;;;;;;;18.25;12.38;;;;;;;;;;4969417;28;20129;-77
2022/10/28 01:16:50;;;;;;;21.73;11.73;;;;;;;;;;4966524;28;20411;-70
2022/10/28 01:19:52;;;;;;;16.63;11.35;;;;;;;;;;4967232;28;20039;-74
2022/10/28 01:22:45;;;;;;;17.00;11.65;;;;;;;;;;4964001;28;20039;-68
2022/10/28 01:25:26;;;;;;;21.88;11.23;;;;;;;;;;4953278;28;20110;-74
2022/10/28 01:28:10;;;;;;;;;;;;;;;;;;4959729;28;20514;-67
2022/10/28 01:30:58;;;;;;;19.00;11.10;;;;;;;;;;4972581;28;19914;-67
2022/10/28 01:33:29;;;;;;;17.02;11.27;;;;;;;;;;4932102;29;20150;-67
2022/10/28 01:36:12;;;;;;;20.23;12.07;;;;;;;;;;4932459;29;20047;-68
2022/10/28 01:38:57;;;;;;;18.92;12.13;;;;;;;;;;4936088;29;20095;-70
2022/10/28 01:41:28;;;;;;;20.60;12.15;;;;;;;;;;4935837;29;20038;-67
2022/10/28 01:44:16;;;;;;;15.77;12.38;;;;;;;;;;4936140;29;20095;-68
2022/10/28 01:47:00;;;;;;;18.67;12.48;;;;;;;;;;4897889;29;20041;-68
2022/10/28 01:49:42;;;;;;;22.70;12.70;;;;;;;;;;4898086;29;20043;-70
2022/10/28 01:52:13;;;;;;;14.98;11.60;;;;;;;;;;4898270;29;20036;-67
2022/10/28 01:54:41;;;;;;;17.67;11.80;;;;;;;;;;4898032;29;20025;-74
2022/10/28 01:57:10;;;;;;;15.85;11.45;;;;;;;;;;4898659;29;20049;-68
2022/10/28 01:59:37;;;;;;;20.70;11.90;;;;;;;;;;4898431;29;20033;-67
2022/10/28 02:02:02;;;;;;;18.23;11.23;;;;;;;;;;4897953;29;20079;-67
2022/10/28 02:04:28;;;;;;;16.63;11.82;;;;;;;;;;4897919;29;20067;-70
2022/10/28 02:06:58;;;;;;;17.88;11.35;;;;;;;;;;4897819;29;20036;-68
2022/10/28 02:09:46;;;;;;;17.60;12.48;;;;;;;;;;4899173;29;20040;-76
2022/10/28 02:12:33;;;;;;;24.73;12.90;;;;;;;;;;4917366;29;20032;-67
2022/10/28 02:15:01;;;;;;;17.80;12.07;;;;;;;;;;4917012;29;20035;-67
2022/10/28 02:17:48;;;;;;;16.85;10.85;;;;;;;;;;4917256;29;20040;-68
2022/10/28 02:20:54;;;;;;;16.00;11.70;;;;;;;;;;4916840;29;20032;-75
2022/10/28 02:23:32;;;;;;;20.67;12.23;;;;;;;;;;4909334;29;20436;-67
2022/10/28 02:26:07;;;;;;;25.27;12.65;;;;;;;;;;4936034;29;20051;-68
2022/10/28 02:28:55;;;;;;;19.10;11.82;;;;;;;;;;4919780;29;20052;-70
2022/10/28 02:31:37;;;;;;;17.52;11.88;;;;;;;;;;4935925;29;20044;-69
2022/10/28 02:34:08;;;;;;;19.08;11.77;;;;;;;;;;4935790;29;20066;-71
2022/10/28 02:36:39;;;;;;;22.50;12.15;;;;;;;;;;4935966;29;20036;-70
2022/10/28 02:39:06;;;;;;;20.92;12.05;;;;;;;;;;4935660;29;20118;-67
2022/10/28 02:41:49;;;;;;;20.15;12.55;;;;;;;;;;4935713;29;20123;-78
2022/10/28 02:44:19;;;;;;;19.65;12.65;;;;;;;;;;4935361;29;20039;-73
2022/10/28 02:46:47;;;;;;;18.92;12.23;;;;;;;;;;4935622;29;20067;-68
2022/10/28 02:49:14;;;;;;;16.00;10.30;;;;;;;;;;4934335;29;20071;-71
2022/10/28 02:51:44;;;;;;;18.50;11.77;;;;;;;;;;4935500;29;20040;-68
2022/10/28 02:54:14;;;;;;;18.13;11.38;;;;;;;;;;4935405;29;20040;-67
2022/10/28 02:56:44;;;;;;;22.50;12.05;;;;;;;;;;4934976;29;20031;-68
2022/10/28 02:59:10;;;;;;;;;;;;;;;;;;4959674;28;20098;-67
2022/10/28 03:01:36;;;;;;;16.55;11.23;;;;;;;;;;4975411;28;20012;-72
2022/10/28 03:04:03;;;;;;;16.75;11.57;;;;;;;;;;4975444;28;20146;-67
2022/10/28 03:06:29;;;;;;;15.48;11.93;;;;;;;;;;4975884;28;20034;-68
2022/10/28 03:08:54;;;;;;;14.65;10.90;;;;;;;;;;4975684;28;20388;-77
2022/10/28 03:11:19;;;;;;;21.88;12.05;;;;;;;;;;4975845;28;20486;-70
2022/10/28 03:13:45;;;;;;;17.10;11.32;;;;;;;;;;4975886;28;20421;-67
2022/10/28 03:16:10;;;;;;;20.70;11.45;;;;;;;;;;4975724;28;20023;-69
2022/10/28 03:18:36;;;;;;;17.35;11.02;;;;;;;;;;4975731;28;20042;-73
2022/10/28 03:21:01;;;;;;;17.65;11.18;;;;;;;;;;4975559;28;20042;-68
2022/10/28 03:23:27;;;;;;;22.02;11.05;;;;;;;;;;4975371;28;20027;-75
2022/10/28 03:25:52;;;;;;;15.30;10.30;;;;;;;;;;4975387;28;20078;-71
2022/10/28 03:28:18;;;;;;;18.75;10.70;;;;;;;;;;4985370;28;20062;-68
2022/10/28 03:30:43;;;;;;;15.05;9.50;;;;;;;;;;4994257;28;20042;-72
2022/10/28 03:33:08;;;;;;;17.15;10.00;;;;;;;;;;4994122;28;20106;-68
2022/10/28 03:35:34;;;;;;;18.02;10.20;;;;;;;;;;4994565;28;20537;-76
2022/10/28 03:38:00;;;;;;;18.30;10.00;;;;;;;;;;4994456;28;20054;-68
2022/10/28 03:40:25;;;;;;;17.80;10.13;;;;;;;;;;4994505;28;20030;-70
2022/10/28 03:42:50;;;;;;;14.95;10.15;;;;;;;;;;4994582;28;20030;-67
2022/10/28 03:45:16;;;;;;;21.02;11.40;;;;;;;;;;4994537;28;20114;-67
2022/10/28 03:47:41;;;;;;;18.10;9.75;;;;;;;;;;4994686;28;20538;-67
2022/10/28 03:50:07;;;;;;;12.65;8.77;;;;;;;;;;4994354;28;20033;-67
2022/10/28 03:52:33;;;;;;;17.65;9.10;;;;;;;;;;4994525;28;20399;-71
2022/10/28 03:54:58;;;;;;;14.75;9.68;;;;;;;;;;4994454;28;20022;-72
2022/10/28 03:57:23;;;;;;;15.43;8.90;;;;;;;;;;4993689;28;20041;-71
2022/10/28 03:59:49;;;;;;;12.23;8.80;;;;;;;;;;4993128;28;20105;-74
2022/10/28 04:02:14;;;;;;;14.75;9.05;;;;;;;;;;4993657;28;20033;-75
2022/10/28 04:04:40;;;;;;;13.65;9.30;;;;;;;;;;4993495;28;20018;-68
2022/10/28 04:07:06;;;;;;;13.25;7.97;;;;;;;;;;4993536;28;20022;-67
2022/10/28 04:09:31;;;;;;;11.63;8.63;;;;;;;;;;4976981;28;20023;-68
2022/10/28 04:11:57;;;;;;;13.13;8.07;;;;;;;;;;4973992;28;20515;-68
2022/10/28 04:14:22;;;;;;;13.95;9.13;;;;;;;;;;4974384;28;20061;-67
2022/10/28 04:16:47;;;;;;;14.48;9.75;;;;;;;;;;4974680;28;20436;-68
2022/10/28 04:19:13;;;;;;;14.52;8.85;;;;;;;;;;4974259;28;20034;-68
2022/10/28 04:21:38;;;;;;;13.45;8.82;;;;;;;;;;4973186;28;20038;-68
2022/10/28 04:24:04;;;;;;;14.80;9.55;;;;;;;;;;4974380;28;20078;-66
2022/10/28 04:26:30;;;;;;;13.52;9.20;;;;;;;;;;4973981;28;20023;-76
2022/10/28 04:28:56;;;;;;;13.25;9.32;;;;;;;;;;4989288;28;20400;-67
2022/10/28 04:31:22;;;;;;;14.95;9.00;;;;;;;;;;4993075;28;20038;-68
2022/10/28 04:33:47;;;;;;;14.45;8.82;;;;;;;;;;4992797;28;20109;-68
2022/10/28 04:36:13;;;;;;;18.35;8.65;;;;;;;;;;4993539;28;20033;-67
2022/10/28 04:38:38;;;;;;;13.02;8.85;;;;;;;;;;4993516;28;20368;-74
2022/10/28 04:41:04;;;;;;;17.98;9.13;;;;;;;;;;4992318;28;20034;-67
2022/10/28 04:43:29;;;;;;;17.17;10.20;;;;;;;;;;4993377;28;20033;-70
2022/10/28 04:45:55;;;;;;;14.90;9.35;;;;;;;;;;4993441;28;20074;-74
2022/10/28 04:48:21;;;;;;;15.07;9.35;;;;;;;;;;4993290;28;20114;-68
2022/10/28 04:50:46;;;;;;;14.43;9.75;;;;;;;;;;4993388;28;20023;-73
2022/10/28 04:53:12;;;;;;;12.20;9.38;;;;;;;;;;4993441;28;20037;-68
2022/10/28 04:55:37;;;;;;;19.15;9.35;;;;;;;;;;4993177;28;20113;-67
2022/10/28 04:58:03;;;;;;;16.52;9.23;;;;;;;;;;4992865;28;20080;-69
2022/10/28 05:00:29;;;;;;;12.57;8.45;;;;;;;;;;4992692;28;20025;-71
2022/10/28 05:02:55;;;;;;;12.95;8.85;;;;;;;;;;4992182;28;20052;-77
2022/10/28 05:05:21;;;;;;;18.83;8.80;;;;;;;;;;4992807;28;20018;-67
2022/10/28 05:07:46;;;;;;;17.75;8.98;;;;;;;;;;4993252;28;20105;-67
2022/10/28 05:10:14;;;;;;;18.33;9.13;;;;;;;;;;4992929;28;20050;-68
2022/10/28 05:12:46;;;;;;;16.30;8.55;;;;;;;;;;4992819;28;20037;-67
2022/10/28 05:15:13;;;;;;;13.95;9.25;;;;;;;;;;4993304;28;20487;-67
2022/10/28 05:17:39;;;;;;;18.60;8.45;;;;;;;;;;4992764;28;20056;-67
2022/10/28 05:20:06;;;;;;;13.90;9.63;;;;;;;;;;4993055;28;20496;-67
2022/10/28 05:22:32;;;;;;;15.95;8.88;;;;;;;;;;4992967;28;20049;-67
2022/10/28 05:24:58;;;;;;;16.38;9.32;;;;;;;;;;4992897;28;20018;-67
2022/10/28 05:27:24;;;;;;;14.05;9.02;;;;;;;;;;4984526;28;20050;-67
2022/10/28 05:29:50;;;;;;;18.60;9.07;;;;;;;;;;4953627;28;20043;-77
2022/10/28 05:32:15;;;;;;;17.42;9.43;;;;;;;;;;4953338;28;20109;-68
2022/10/28 05:34:40;;;;;;;17.27;9.77;;;;;;;;;;4953878;28;20453;-67
2022/10/28 05:37:06;;;;;;;14.43;10.15;;;;;;;;;;4954111;28;20030;-68
2022/10/28 05:39:32;;;;;;;18.80;10.23;;;;;;;;;;4954134;28;20701;-68
2022/10/28 05:41:57;;;;;;;16.00;10.02;;;;;;;;;;4953718;28;20110;-69
2022/10/28 05:44:23;;;;;;;14.48;10.10;;;;;;;;;;4953450;28;20038;-67
2022/10/28 05:46:48;;;;;;;15.18;8.75;;;;;;;;;;4954492;28;20477;-69
2022/10/28 05:49:19;;;;;;;18.17;9.57;;;;;;;;;;4972733;28;20026;-67
2022/10/28 05:51:45;;;;;;;14.15;9.52;;;;;;;;;;4973195;28;20034;-67
2022/10/28 05:54:11;;;;;;;13.43;9.27;;;;;;;;;;4973253;28;20108;-69
2022/10/28 05:56:36;;;;;;;14.93;8.20;;;;;;;;;;4973147;28;20469;-73
2022/10/28 05:59:02;;;;;;;16.17;9.60;;;;;;;;;;4973416;28;20026;-67
2022/10/28 06:01:28;;;;;;;19.75;15.20;;;;;;;;;;4972500;28;20480;-75
2022/10/28 06:03:53;;;;;;;12.77;9.15;;;;;;;;;;4973211;28;20394;-67
2022/10/28 06:06:19;;;;;;;13.80;9.20;;;;;;;;;;4973192;28;20027;-67
2022/10/28 06:08:45;;;;;;;16.27;9.93;;;;;;;;;;4972910;28;20031;-67
2022/10/28 06:11:10;;;;;;;19.20;9.60;;;;;;;;;;4973283;28;20041;-70
2022/10/28 06:13:36;;;;;;;16.70;9.63;;;;;;;;;;4973106;28;20031;-67
2022/10/28 06:16:01;;;;;;;14.85;9.23;;;;;;;;;;4973016;28;20065;-68
2022/10/28 06:18:27;;;;;;;14.75;9.30;;;;;;;;;;4973035;28;20027;-67
2022/10/28 06:20:57;;;;;;;15.38;8.95;;;;;;;;;;4973156;28;20465;-67
2022/10/28 06:23:23;;;;;;;17.15;9.50;;;;;;;;;;4975376;28;20125;-67
2022/10/28 06:25:49;;;;;;;12.35;9.02;;;;;;;;;;4976515;28;20030;-70
2022/10/28 06:28:15;;;;;;;17.65;9.45;;;;;;;;;;4984887;28;20061;-67
2022/10/28 06:30:40;;;;;;;14.93;9.40;;;;;;;;;;4995165;28;20457;-67
2022/10/28 06:33:06;;;;;;;13.35;10.13;;;;;;;;;;4995345;28;20026;-66
2022/10/28 06:35:31;;;;;;;18.63;10.98;;;;;;;;;;4995329;28;20026;-67
2022/10/28 06:37:57;;;;;;;15.98;9.18;;;;;;;;;;4995948;28;20066;-67
2022/10/28 06:40:24;;;;;;;18.85;9.50;;;;;;;;;;4995832;28;20108;-67
2022/10/28 06:43:00;;;;;;;13.20;9.30;;;;;;;;;;4995838;28;20039;-67
2022/10/28 06:45:27;;;;;;;11.20;8.13;;;;;;;;;;4995342;28;20030;-73
2022/10/28 06:48:00;;;;;;;11.45;8.10;;;;;;;;;;4995662;28;20034;-74
2022/10/28 06:50:27;;;;;;;11.30;7.55;;;;;;;;;;4995274;28;20034;-67
2022/10/28 06:52:55;;;;;;;9.75;6.15;;;;;;;;;;4995577;28;20030;-67
2022/10/28 06:55:20;;;;;;;9.07;6.30;;;;;;;;;;4995466;28;20146;-67
2022/10/28 06:57:46;;;;;;;11.57;6.03;;;;;;;;;;4994851;28;20101;-67
2022/10/28 07:00:12;;;;;;;14.45;6.75;;;;;;;;;;4993063;28;20026;-68
2022/10/28 07:02:37;;;;;;;13.18;5.97;;;;;;;;;;4957496;28;20032;-67
2022/10/28 07:05:03;;;;;;;11.88;6.45;;;;;;;;;;4956312;28;20029;-67
2022/10/28 07:07:29;;;;;;;12.52;6.50;;;;;;;;;;4956493;28;20381;-67
2022/10/28 07:09:54;;;;;;;11.70;6.53;;;;;;;;;;4956477;28;20058;-67
2022/10/28 07:12:19;;;;;;;13.02;6.13;;;;;;;;;;4958965;28;20027;-67
2022/10/28 07:14:45;;;;;;;11.38;5.95;;;;;;;;;;4956344;28;20035;-67
2022/10/28 07:17:10;;;;;;;9.27;6.00;;;;;;;;;;4973279;28;20066;-67
2022/10/28 07:19:36;;;;;;;9.45;6.05;;;;;;;;;;4975651;28;20389;-67
2022/10/28 07:22:01;;;;;;;9.45;5.90;;;;;;;;;;4967437;28;20023;-67
2022/10/28 07:24:27;;;;;;;9.98;5.93;;;;;;;;;;4975542;28;20058;-67
2022/10/28 07:26:52;;;;;;;10.85;5.90;;;;;;;;;;4975219;28;20556;-67
2022/10/28 07:29:18;;;;;;;15.80;6.45;;;;;;;;;;4994148;28;20108;-67
2022/10/28 07:31:43;;;;;;;11.30;5.90;;;;;;;;;;4994941;28;20479;-71
2022/10/28 07:34:09;;;;;;;10.30;6.15;;;;;;;;;;4993852;28;20027;-79
2022/10/28 07:36:34;;;;;;;12.93;6.85;;;;;;;;;;4979806;28;20038;-77
2022/10/28 07:39:00;;;;;;;11.95;6.35;;;;;;;;;;4975265;28;20035;-69
2022/10/28 07:41:26;;;;;;;12.70;6.75;;;;;;;;;;4975315;28;20388;-68
2022/10/28 07:43:51;;;;;;;12.05;6.38;;;;;;;;;;4975005;28;20029;-67
2022/10/28 07:46:17;;;;;;;12.32;6.30;;;;;;;;;;4975086;28;20027;-67
2022/10/28 07:48:43;;;;;;;14.30;8.95;;;;;;;;;;4974940;28;20038;-67
2022/10/28 07:51:11;;;;;;;14.05;7.47;;;;;;;;;;4975008;28;20379;-73
2022/10/28 07:53:36;;;;;;;11.70;6.93;;;;;;;;;;4974998;28;20038;-67
2022/10/28 07:56:07;;;;;;;12.25;7.13;;;;;;;;;;4974776;28;20037;-68
2022/10/28 07:58:33;;;;;;;15.50;6.30;;;;;;;;;;4974560;28;20030;-67
2022/10/28 08:01:04;;;;;;;13.50;6.32;;;;;;;;;;4974875;28;20070;-67
2022/10/28 08:03:30;;;;;;;17.67;10.15;;;;;;;;;;4974808;28;20035;-67
2022/10/28 08:06:23;;;;;;;12.15;6.15;;;;;;;;;;4974682;28;20082;-68
2022/10/28 08:08:53;;;;;;;14.40;6.25;;;;;;;;;;4973995;28;20047;-67
2022/10/28 08:11:21;;;;;;;12.35;6.20;;;;;;;;;;4974462;28;20027;-67
2022/10/28 08:13:47;;;;;;;14.63;6.65;;;;;;;;;;4974786;28;20093;-68
2022/10/28 08:16:12;;;;;;;14.55;7.18;;;;;;;;;;4974595;28;20810;-67
2022/10/28 08:18:38;;;;;;;14.88;6.35;;;;;;;;;;4974568;28;20532;-67
2022/10/28 08:21:05;;;;;;;11.18;6.20;;;;;;;;;;4974473;28;20038;-68
2022/10/28 08:23:31;;;;;;;16.30;6.15;;;;;;;;;;4974506;28;20406;-67
2022/10/28 08:25:57;;;;;;;9.80;6.10;;;;;;;;;;4974017;28;20023;-67
2022/10/28 08:28:23;;;;;;;10.23;5.95;;;;;;;;;;4985518;28;20065;-67
2022/10/28 08:30:49;;;;;;;13.93;6.05;;;;;;;;;;4993740;28;20388;-68
2022/10/28 08:33:15;;;;;;;12.95;5.97;;;;;;;;;;4992509;28;20026;-68
2022/10/28 08:35:41;;;;;;;8.43;5.70;;;;;;;;;;4993691;28;20027;-67
2022/10/28 08:38:07;;;;;;;13.10;6.72;;;;;;;;;;4993431;28;20032;-67
2022/10/28 08:41:04;;;;;;;13.63;5.85;;;;;;;;;;4992161;28;20065;-67
2022/10/28 08:43:38;;;;;;;9.98;5.93;;;;;;;;;;4993546;28;20034;-74
2022/10/28 08:46:15;;;;;;;13.02;6.60;;;;;;;;;;4992992;28;20022;-67
2022/10/28 08:48:41;;;;;;;13.38;6.95;;;;;;;;;;4988099;28;20081;-75
2022/10/28 08:51:17;;;;;;;13.77;6.93;;;;;;;;;;4973896;28;20477;-76
2022/10/28 08:53:55;;;;;;;13.63;6.68;;;;;;;;;;4973919;28;20105;-67
2022/10/28 08:56:36;;;;;;;14.07;5.88;;;;;;;;;;4970566;28;20070;-77
2022/10/28 08:59:04;;;;;;;13.57;6.60;;;;;;;;;;4964434;28;20188;-75
2022/10/28 09:02:02;;;;;;;11.13;6.45;;;;;;;;;;4962579;28;20027;-75
2022/10/28 09:04:41;;;;;;;13.38;6.20;;;;;;;;;;4967056;28;20050;-71
2022/10/28 09:07:17;;;;;;;11.77;6.23;;;;;;;;;;4973844;28;20037;-73
2022/10/28 09:10:19;;;;;;;11.68;5.68;;;;;;;;;;4973149;28;20031;-75
2022/10/28 09:13:10;;;;;;;11.88;6.57;;;;;;;;;;4973682;28;20115;-78
2022/10/28 09:15:41;;;;;;;;;;;;;;;;;;4974075;28;20109;-73
2022/10/28 09:18:27;;;;;;;10.57;6.43;;;;;;;;;;4973404;28;20292;-67
2022/10/28 09:20:55;;;;;;;13.00;6.78;;;;;;;;;;4973543;28;20027;-67
2022/10/28 09:23:29;;;;;;;11.60;6.03;;;;;;;;;;4973543;28;20108;-67
2022/10/28 09:26:27;;;;;;;11.48;6.50;;;;;;;;;;4973266;28;20030;-67
2022/10/28 09:29:24;;;;;;;12.65;6.55;;;;;;;;;;4973163;28;20082;-68
2022/10/28 09:32:10;;;;;;;15.80;7.10;;;;;;;;;;4973581;28;20176;-72
2022/10/28 09:35:00;;;;;;;13.23;7.15;;;;;;;;;;4973442;28;20113;-68
2022/10/28 09:37:34;;;;;;;13.40;6.70;;;;;;;;;;4973453;28;20031;-72
2022/10/28 09:40:12;;;;;;;9.52;6.95;;;;;;;;;;4973149;28;20031;-68
2022/10/28 09:42:44;;;;;;;14.02;8.15;;;;;;;;;;4973407;28;20062;-71
2022/10/28 09:45:20;;;;;;;16.73;7.90;;;;;;;;;;4973285;28;20443;-69
2022/10/28 09:47:55;;;;;;;10.13;7.00;;;;;;;;;;4973245;28;20425;-74
2022/10/28 09:50:25;;;;;;;15.52;7.35;;;;;;;;;;4973111;28;20031;-77
2022/10/28 09:53:11;;;;;;;18.88;9.18;;;;;;;;;;4972985;28;20027;-68
2022/10/28 09:55:37;;;;;;;13.60;7.90;;;;;;;;;;4973266;28;20031;-66
2022/10/28 09:58:04;;;;;;;14.65;8.48;;;;;;;;;;4974830;28;20089;-65
2022/10/28 10:00:30;;;;;;;13.30;7.50;;;;;;;;;;4976995;28;20034;-65
2022/10/28 10:02:57;;;;;;;10.57;6.63;;;;;;;;;;4976905;28;20380;-66
2022/10/28 10:05:23;;;;;;;16.88;6.72;;;;;;;;;;4976792;28;20126;-70
2022/10/28 10:07:59;;;;;;;12.15;6.68;;;;;;;;;;4976347;28;20034;-66
2022/10/28 10:10:42;;;;;;;18.90;6.82;;;;;;;;;;4976799;28;20018;-66
2022/10/28 10:13:08;;;;;;;12.07;6.05;;;;;;;;;;4977178;28;20027;-65
2022/10/28 10:15:49;;;;;;;11.00;4.95;;;;;;;;;;4976673;28;20023;-65
2022/10/28 10:18:21;;;;;;;16.02;6.07;;;;;;;;;;4976398;28;20125;-66
2022/10/28 10:20:52;;;;;;;12.00;5.38;;;;;;;;;;4976624;28;20027;-66
2022/10/28 10:23:37;;;;;;;14.88;5.30;;;;;;;;;;4976502;28;20051;-70
2022/10/28 10:26:05;;;;;;;9.77;5.32;;;;;;;;;;4976496;28;20384;-66
2022/10/28 10:28:34;;;;;;;15.23;5.47;;;;;;;;;;4988950;28;20050;-67
2022/10/28 10:31:01;;;;;;;13.45;5.20;;;;;;;;;;4995797;28;20030;-71
2022/10/28 10:33:31;;;;;;;12.05;4.95;;;;;;;;;;4993050;28;20472;-66
2022/10/28 10:36:01;;;;;;;14.43;5.57;;;;;;;;;;4976357;28;20034;-70
2022/10/28 10:38:28;;;;;;;11.38;5.55;;;;;;;;;;4976150;28;20106;-66
2022/10/28 10:40:54;;;;;;;8.15;5.18;;;;;;;;;;4976275;28;20031;-66
2022/10/28 10:43:29;;;;;;;11.43;5.45;;;;;;;;;;4976063;28;20384;-66
2022/10/28 10:46:04;;;;;;;13.85;5.40;;;;;;;;;;4976031;28;20042;-66
2022/10/28 10:48:33;;;;;;;8.52;4.53;;;;;;;;;;4975762;28;20365;-68
2022/10/28 10:51:40;;;;;;;11.15;5.38;;;;;;;;;;4975816;28;20361;-66
2022/10/28 10:54:13;;;;;;;8.25;4.43;;;;;;;;;;4923502;29;20123;-66
2022/10/28 10:56:39;;;;;;;10.02;4.90;;;;;;;;;;4930214;29;20043;-66
2022/10/28 10:59:14;;;;;;;13.50;5.15;;;;;;;;;;4935354;29;20059;-67
2022/10/28 11:01:40;;;;;;;15.52;5.35;;;;;;;;;;4935266;29;20425;-76
2022/10/28 11:04:07;;;;;;;29.00;5.70;;;;;;;;;;4935081;29;20024;-67
2022/10/28 11:06:39;;;;;;;11.20;4.60;;;;;;;;;;4935013;29;20114;-68
2022/10/28 11:09:17;;;;;;;6.78;4.72;;;;;;;;;;4934003;29;20481;-73
2022/10/28 11:11:43;;;;;;;9.75;4.47;;;;;;;;;;4935022;29;20040;-66
2022/10/28 11:14:08;;;;;;;12.18;4.60;;;;;;;;;;4934511;29;20442;-77
2022/10/28 11:16:52;;;;;;;9.18;4.70;;;;;;;;;;4935127;29;20074;-69
2022/10/28 11:19:29;;;;;;;14.48;5.13;;;;;;;;;;4934837;29;20028;-69
2022/10/28 11:22:13;;;;;;;10.13;4.95;;;;;;;;;;4934450;29;20044;-67
2022/10/28 11:24:38;;;;;;;8.23;4.85;;;;;;;;;;4934980;29;20032;-65
2022/10/28 11:27:07;;;;;;;13.20;4.97;;;;;;;;;;4938410;28;20075;-68
2022/10/28 11:29:32;;;;;;;12.43;4.80;;;;;;;;;;4975381;28;20070;-66
2022/10/28 11:32:19;;;;;;;12.70;4.97;;;;;;;;;;4974702;28;20503;-75
2022/10/28 11:34:59;;;;;;;12.63;5.32;;;;;;;;;;4974696;28;20532;-69
2022/10/28 11:37:33;;;;;;;10.85;4.85;;;;;;;;;;4974954;28;20396;-73
2022/10/28 11:40:04;;;;;;;15.88;5.70;;;;;;;;;;4974776;28;20026;-66
2022/10/28 11:42:43;;;;;;;18.73;5.82;;;;;;;;;;4975244;28;20026;-71
2022/10/28 11:45:15;;;;;;;13.55;4.82;;;;;;;;;;4975105;28;20470;-66
2022/10/28 11:47:59;;;;;;;12.18;3.95;;;;;;;;;;4974957;28;20110;-77
2022/10/28 11:51:00;;;;;;;8.85;4.90;;;;;;;;;;4974788;28;20078;-75
2022/10/28 11:53:50;;;;;;;20.00;6.63;;;;;;;;;;4934160;29;20043;-76
2022/10/28 11:56:24;;;;;;;9.52;5.10;;;;;;;;;;4934176;29;20035;-70
2022/10/28 11:58:55;;;;;;;10.90;4.95;;;;;;;;;;4934310;29;20485;-66
2022/10/28 12:01:39;;;;;;;12.55;5.15;;;;;;;;;;4934194;29;20093;-66
2022/10/28 12:04:35;;;;;;;8.52;5.53;;;;;;;;;;4933739;29;20040;-72
2022/10/28 12:07:23;;;;;;;12.25;5.55;;;;;;;;;;4934152;29;20038;-73
2022/10/28 12:10:07;;;;;;;12.88;5.60;;;;;;;;;;4933542;29;20047;-69
2022/10/28 12:12:41;;;;;;;7.45;4.47;;;;;;;;;;4934117;29;20036;-66
2022/10/28 12:15:27;;;;;;;14.27;5.60;;;;;;;;;;4933977;29;20514;-67
2022/10/28 12:18:06;;;;;;;11.63;4.80;;;;;;;;;;4917653;29;20056;-66
2022/10/28 12:20:53;;;;;;;12.35;5.13;;;;;;;;;;4933764;29;20032;-71
2022/10/28 12:23:22;;;;;;;10.85;4.40;;;;;;;;;;4933896;29;20044;-76
2022/10/28 12:25:53;;;;;;;11.57;4.90;;;;;;;;;;4934025;29;20036;-66
2022/10/28 12:28:24;;;;;;;13.93;4.65;;;;;;;;;;4933319;29;20063;-70
2022/10/28 12:30:50;;;;;;;10.25;4.30;;;;;;;;;;4952960;29;20047;-67
2022/10/28 12:33:40;;;;;;;11.63;4.05;;;;;;;;;;4954581;28;20028;-66
2022/10/28 12:36:06;;;;;;;6.10;4.07;;;;;;;;;;4954421;28;20031;-72
2022/10/28 12:38:43;;;;;;;11.10;4.70;;;;;;;;;;4954776;28;20078;-65
2022/10/28 12:41:20;;;;;;;10.10;4.97;;;;;;;;;;4954471;28;20469;-68
2022/10/28 12:44:10;;;;;;;12.73;4.80;;;;;;;;;;4954760;28;20110;-78
2022/10/28 12:47:04;;;;;;;7.80;3.90;;;;;;;;;;4954916;28;20096;-67
2022/10/28 12:49:44;;;;;;;11.27;5.05;;;;;;;;;;4954576;28;20058;-66
2022/10/28 12:52:23;;;;;;;7.28;4.05;;;;;;;;;;4954433;28;20082;-66
2022/10/28 12:54:57;;;;;;;14.00;5.10;;;;;;;;;;4961961;28;20477;-68
2022/10/28 12:57:24;;;;;;;11.25;4.50;;;;;;;;;;4973739;28;20228;-66
2022/10/28 13:00:03;;;;;;;7.18;4.05;;;;;;;;;;4973809;28;20388;-66
2022/10/28 13:02:45;;;;;;;8.52;4.53;;;;;;;;;;4973497;28;20023;-77
2022/10/28 13:05:26;;;;;;;9.98;3.95;;;;;;;;;;4973823;28;20031;-70
2022/10/28 13:08:25;;;;;;;10.75;5.38;;;;;;;;;;4973463;28;20030;-70
2022/10/28 13:11:18;;;;;;;11.60;5.03;;;;;;;;;;4973571;28;20435;-70
2022/10/28 13:14:17;;;;;;;17.15;4.82;;;;;;;;;;4973454;28;20081;-76
2022/10/28 13:17:03;;;;;;;14.00;4.53;;;;;;;;;;4973415;28;20104;-66
2022/10/28 13:19:31;;;;;;;8.93;4.00;;;;;;;;;;4973480;28;20066;-69
2022/10/28 13:22:22;;;;;;;7.35;3.95;;;;;;;;;;4973402;28;20030;-76
2022/10/28 13:24:57;;;;;;;9.27;4.05;;;;;;;;;;4973545;28;20106;-68
2022/10/28 13:27:24;;;;;;;11.32;4.25;;;;;;;;;;4972987;28;20555;-71
2022/10/28 13:29:53;;;;;;;9.50;4.63;;;;;;;;;;4973507;28;20481;-77
2022/10/28 13:32:37;;;;;;;9.75;4.00;;;;;;;;;;4974078;28;20083;-71
2022/10/28 13:35:25;;;;;;;6.43;3.85;;;;;;;;;;4977409;28;20026;-69
2022/10/28 13:37:53;;;;;;;16.45;4.97;;;;;;;;;;4977210;28;20134;-72
2022/10/28 13:40:30;;;;;;;13.60;4.28;;;;;;;;;;4977436;28;20035;-68
2022/10/28 13:42:58;;;;;;;8.88;3.50;;;;;;;;;;4977723;28;20034;-69
2022/10/28 13:45:53;;;;;;;10.45;4.55;;;;;;;;;;4977276;28;20034;-77
2022/10/28 13:48:27;;;;;;;9.23;3.80;;;;;;;;;;4977003;28;20027;-76
2022/10/28 13:51:13;;;;;;;7.60;3.88;;;;;;;;;;4977506;28;20476;-68
2022/10/28 13:53:44;;;;;;;8.23;4.07;;;;;;;;;;4936638;29;20044;-74
2022/10/28 13:56:24;;;;;;;14.45;4.28;;;;;;;;;;4920714;29;20039;-68
2022/10/28 13:59:17;;;;;;;8.43;3.90;;;;;;;;;;4936583;29;20044;-68
2022/10/28 14:01:57;;;;;;;7.25;3.70;;;;;;;;;;4924100;29;20043;-71
2022/10/28 14:04:24;;;;;;;;;;;;;;;;;;4936902;29;20119;-69
2022/10/28 14:07:00;;;;;;;8.48;3.45;;;;;;;;;;4936188;29;19911;-68
2022/10/28 14:09:29;;;;;;;19.52;5.55;;;;;;;;;;4936502;29;20517;-68
2022/10/28 14:12:04;;;;;;;10.23;3.55;;;;;;;;;;4936442;29;20036;-69
2022/10/28 14:14:30;;;;;;;11.30;3.90;;;;;;;;;;4936471;29;20409;-68
2022/10/28 14:16:55;;;;;;;10.18;4.10;;;;;;;;;;4936485;29;20031;-68
2022/10/28 14:19:22;;;;;;;10.13;4.20;;;;;;;;;;4936411;29;20388;-80
2022/10/28 14:21:55;;;;;;;9.15;3.75;;;;;;;;;;4936279;29;20437;-70
2022/10/28 14:24:40;;;;;;;13.63;4.15;;;;;;;;;;4936112;29;20043;-74
2022/10/28 14:27:10;;;;;;;11.10;4.28;;;;;;;;;;4935531;29;20134;-75
2022/10/28 14:29:49;;;;;;;11.07;3.60;;;;;;;;;;4934087;28;20067;-78
2022/10/28 14:32:58;;;;;;;14.85;4.32;;;;;;;;;;4957705;28;20039;-69
2022/10/28 14:35:54;;;;;;;9.80;3.92;;;;;;;;;;4936014;29;20063;-76
2022/10/28 14:38:44;;;;;;;16.73;4.18;;;;;;;;;;4934582;29;20070;-70
2022/10/28 14:41:36;;;;;;;13.02;3.95;;;;;;;;;;4936232;29;20063;-79
2022/10/28 14:44:36;;;;;;;9.18;3.60;;;;;;;;;;4935544;29;20032;-75
2022/10/28 14:47:07;;;;;;;16.25;3.90;;;;;;;;;;4935831;29;20028;-73
2022/10/28 14:49:36;;;;;;;9.52;3.13;;;;;;;;;;4935839;29;20035;-68
2022/10/28 14:52:15;;;;;;;14.18;4.57;;;;;;;;;;4935905;29;20118;-78
2022/10/28 14:54:56;;;;;;;9.07;3.38;;;;;;;;;;4936041;29;20028;-72
2022/10/28 14:57:29;;;;;;;10.13;3.72;;;;;;;;;;4935537;29;20036;-69
2022/10/28 14:59:57;;;;;;;13.73;3.60;;;;;;;;;;4935827;29;20071;-69